Latest Weather Observations for King Island Airport

IDT60801

Issued at 10:32 am EDT Saturday 25 February 2017 (issued every 30 minutes, with the page automatically refreshed every 10 minutes)

About weather observations | Map of weather stations | Latest weather observations for TAS | Other Formats
Station Details ID: 098017 Name: KING ISLAND AIRPORT Lat: -39.88 Lon: 143.88 Height: 37.0 m
Data from the previous 72 hours. | See also: Recent months at King Island Airport
Date/Time
EDT
Temp
°C
App
Temp
°C
Dew
Point
°C
Rel
Hum
%
Delta-T
°C
Wind Press
QNH
hPa
Press
MSL
hPa
Rain since
9am
mm
Dir  Spd
km/h
Gust
km/h
Spd
kts
Gust
kts
25/10:30am 16.6 11.0 8.8 60 4.0 SSE 28 48 15 26 1026.3 1026.2 0.0
25/10:28am 16.1 10.4 8.3 60 3.9 SSE 28 48 15 26 1026.2 1026.1 0.0
25/10:00am 15.9 9.8 8.2 60 3.9 S 30 43 16 23 1026.3 1026.2 0.0
25/09:50am 15.7 9.6 6.7 55 4.4 SSE 28 46 15 25 1026.4 1026.3 0.0
25/09:30am 14.4 8.8 7.2 62 3.5 SSE 26 44 14 24 1026.4 1026.3 0.0
25/09:00am 14.6 9.7 6.9 60 3.7 S 22 32 12 17 1026.3 1026.2 0.0
25/08:30am 13.7 9.3 7.2 65 3.2 S 20 32 11 17 1026.4 1026.3 0.0
25/08:00am 12.6 8.7 6.9 68 2.7 S 17 24 9 13 1026.3 1026.2 0.0
25/07:30am 11.1 7.5 6.6 74 2.1 S 15 19 8 10 1026.1 1026.0 0.0
25/07:00am 10.6 7.2 5.8 72 2.2 S 13 17 7 9 1025.9 1025.8 0.0
25/06:30am 10.7 7.3 5.7 71 2.3 S 13 17 7 9 1025.8 1025.7 0.0
25/06:00am 10.1 6.7 6.1 76 1.8 SSE 13 17 7 9 1025.8 1025.7 0.0
25/05:30am 10.7 7.2 5.5 70 2.4 S 13 17 7 9 1025.6 1025.5 0.0
25/05:00am 10.5 7.1 5.9 73 2.1 S 13 19 7 10 1025.6 1025.5 0.0
25/04:30am 10.9 7.5 5.7 70 2.4 S 13 17 7 9 1025.9 1025.8 0.0
25/04:00am 10.3 6.9 5.9 74 2.0 SSE 13 19 7 10 1025.8 1025.7 0.0
25/03:30am 10.6 7.2 5.8 72 2.2 S 13 17 7 9 1026.0 1025.9 0.0
25/03:00am 11.5 8.1 6.0 69 2.6 S 13 19 7 10 1026.1 1026.0 0.0
25/02:30am 11.7 8.1 6.6 71 2.4 S 15 20 8 11 1026.1 1026.0 0.0
25/02:00am 11.6 8.5 7.1 74 2.1 S 13 22 7 12 1026.3 1026.2 0.0
25/01:30am 11.1 7.9 6.8 75 2.0 S 13 17 7 9 1026.5 1026.4 0.0
25/01:00am 10.9 7.8 7.4 79 1.7 S 13 20 7 11 1026.5 1026.4 0.0
25/12:30am 11.0 8.0 6.2 72 2.2 S 11 15 6 8 1026.6 1026.6 0.0
25/12:00am 11.4 8.2 6.7 73 2.2 S 13 17 7 9 1026.6 1026.6 0.0
 
Date/Time
EDT
Temp
°C
App
Temp
°C
Dew
Point
°C
Rel
Hum
%
Delta-T
°C
Wind Press
QNH
hPa
Press
MSL
hPa
Rain since
9am
mm
Dir  Spd
km/h
Gust
km/h
Spd
kts
Gust
kts
24/11:30pm 11.5 8.5 7.6 77 1.9 S 13 17 7 9 1026.6 1026.6 0.0
24/11:00pm 11.8 9.6 7.9 77 1.9 S 9 13 5 7 1026.7 1026.7 0.0
24/10:30pm 11.7 9.4 7.6 76 2.0 S 9 13 5 7 1026.9 1026.9 0.0
24/10:00pm 11.8 9.1 7.5 75 2.1 S 11 15 6 8 1026.8 1026.8 0.0
24/09:30pm 11.9 8.9 7.6 75 2.1 SSE 13 20 7 11 1026.6 1026.6 0.0
24/09:00pm 12.2 9.5 7.5 73 2.3 SSE 11 15 6 8 1026.5 1026.4 0.0
24/08:30pm 12.9 9.8 7.1 68 2.8 S 13 17 7 9 1026.2 1026.1 0.0
24/08:00pm 14.2 10.3 7.3 63 3.4 S 17 22 9 12 1026.0 1025.9 0.0
24/07:30pm 15.1 10.9 7.4 60 3.8 S 19 33 10 18 1025.8 1025.7 0.0
24/07:00pm 15.5 10.5 9.6 68 3.0 S 26 37 14 20 1025.5 1025.4 0.0
24/06:30pm 16.3 10.8 10.6 69 3.0 SSW 30 39 16 21 1025.5 1025.4 0.0
24/06:00pm 16.8 10.9 9.0 60 4.0 SW 30 39 16 21 1025.2 1025.1 0.0
24/05:30pm 17.2 11.2 10.1 63 3.8 SW 32 39 17 21 1025.1 1025.0 0.0
24/05:00pm 17.9 12.5 10.8 63 3.8 SW 30 39 16 21 1024.9 1024.8 0.0
24/04:30pm 16.3 11.9 10.4 68 3.1 SW 24 33 13 18 1025.0 1024.9 0.0
24/04:00pm 18.0 12.5 10.4 61 4.0 SW 30 39 16 21 1024.9 1024.8 0.0
24/03:30pm 18.3 13.3 10.9 62 4.0 SW 28 35 15 19 1025.0 1024.9 0.0
24/03:00pm 17.4 12.1 11.2 67 3.3 SSW 30 39 16 21 1025.3 1025.2 0.0
24/02:30pm 17.1 12.2 11.2 68 3.2 SW 28 41 15 22 1025.4 1025.3 0.0
24/02:00pm 16.9 10.5 9.3 61 3.9 WSW 33 44 18 24 1025.4 1025.3 0.0
24/01:30pm 17.4 12.9 10.1 62 3.9 W 24 35 13 19 1025.3 1025.2 0.0
24/01:00pm 17.4 13.3 10.1 62 3.9 WSW 22 32 12 17 1025.2 1025.1 0.0
24/12:30pm 16.8 11.7 9.2 61 3.9 WSW 26 39 14 21 1025.4 1025.3 0.0
24/12:00pm 17.5 13.0 9.9 61 4.0 WSW 24 32 13 17 1025.4 1025.3 0.0
24/11:30am 17.5 13.5 9.2 58 4.3 WSW 20 30 11 16 1025.3 1025.2 0.0
24/11:00am 16.7 11.5 10.3 66 3.4 WSW 28 37 15 20 1025.3 1025.2 0.0
24/10:30am 16.5 11.2 8.5 59 4.1 WSW 26 37 14 20 1025.2 1025.1 0.0
24/10:00am 16.4 10.9 7.6 56 4.4 WSW 26 33 14 18 1025.1 1025.0 0.0
24/09:30am 16.2 10.7 7.4 56 4.4 WSW 26 33 14 18 1024.8 1024.7 0.0
24/09:00am 15.9 10.4 7.4 57 4.2 WSW 26 33 14 18 1024.5 1024.4 0.0
24/08:30am 15.7 11.4 7.7 59 4.0 WSW 20 30 11 16 1024.2 1024.1 0.0
24/08:00am 15.4 11.2 8.4 63 3.5 WSW 20 28 11 15 1023.8 1023.7 0.0
24/07:30am 15.0 11.6 7.8 62 3.6 SW 15 22 8 12 1023.5 1023.4 0.0
24/07:00am 15.0 10.8 7.3 60 3.8 SW 19 24 10 13 1023.3 1023.2 0.0
24/06:30am 15.1 11.2 8.8 66 3.2 WSW 19 26 10 14 1023.1 1023.0 0.0
24/06:00am 15.0 12.0 7.8 62 3.6 WSW 13 19 7 10 1022.9 1022.8 0.0
24/05:30am 14.9 11.4 7.0 59 3.9 WSW 15 20 8 11 1022.8 1022.7 0.0
24/05:00am 14.8 11.4 7.6 62 3.6 WSW 15 19 8 10 1022.6 1022.5 0.0
24/04:30am 14.7 11.0 6.5 58 4.0 SW 15 28 8 15 1022.7 1022.6 0.0
24/04:00am 14.7 10.2 6.8 59 3.8 WSW 20 28 11 15 1022.7 1022.6 0.0
24/03:30am 14.7 10.7 6.5 58 4.0 SW 17 28 9 15 1022.6 1022.5 0.0
24/03:00am 14.6 11.6 7.9 64 3.3 SW 13 17 7 9 1022.5 1022.4 0.0
24/02:30am 14.6 10.6 6.7 59 3.8 SW 17 24 9 13 1022.8 1022.7 0.0
24/02:00am 14.5 10.5 6.8 60 3.7 SW 17 24 9 13 1022.8 1022.7 0.0
24/01:30am 14.5 10.9 6.6 59 3.8 SW 15 22 8 12 1022.8 1022.7 0.0
24/01:00am 14.8 10.5 7.1 60 3.8 SW 19 26 10 14 1022.9 1022.8 0.0
24/12:30am 14.7 10.6 7.7 63 3.5 SW 19 26 10 14 1022.9 1022.8 0.0
24/12:00am 14.7 10.3 9.1 69 2.8 SW 22 28 12 15 1023.1 1023.0 0.0
 
Date/Time
EDT
Temp
°C
App
Temp
°C
Dew
Point
°C
Rel
Hum
%
Delta-T
°C
Wind Press
QNH
hPa
Press
MSL
hPa
Rain since
9am
mm
Dir  Spd
km/h
Gust
km/h
Spd
kts
Gust
kts
23/11:30pm 15.1 10.8 7.9 62 3.6 WSW 20 32 11 17 1023.1 1023.0 0.0
23/11:00pm 15.2 10.6 8.2 63 3.5 WSW 22 32 12 17 1023.1 1023.0 0.0
23/10:30pm 15.1 11.3 9.7 70 2.8 SW 20 28 11 15 1023.0 1022.9 0.0
23/10:00pm 15.1 12.0 10.3 73 2.5 SW 17 24 9 13 1022.7 1022.6 0.0
23/09:30pm 15.1 12.1 10.7 75 2.3 SW 17 22 9 12 1022.4 1022.3 0.0
23/09:00pm 15.0 11.6 11.2 78 2.0 WSW 20 33 11 18 1021.9 1021.8 0.0
23/08:30pm 14.9 11.6 11.5 80 1.8 SW 20 28 11 15 1021.5 1021.4 0.0
23/08:00pm 15.2 12.4 11.2 77 2.1 SW 17 24 9 13 1021.2 1021.1 0.0
23/07:30pm 15.1 10.8 11.9 81 1.7 WSW 26 37 14 20 1020.8 1020.7 0.0
23/07:00pm 14.6 10.5 12.8 89 1.0 SW 26 32 14 17 1020.6 1020.5 0.0
23/06:57pm 14.7 11.1 13.1 90 0.9 SW 24 32 13 17 1020.5 1020.4 0.0
23/06:47pm 15.2 11.6 12.9 86 1.3 WSW 24 35 13 19 1020.5 1020.4 0.0
23/06:30pm 15.5 12.6 12.8 84 1.5 WSW 20 28 11 15 1020.3 1020.2 0.0
23/06:13pm 15.9 12.5 12.5 80 1.9 SW 22 28 12 15 1020.1 1020.0 0.0
23/06:00pm 16.1 12.4 12.7 80 1.9 SW 24 33 13 18 1020.0 1019.9 0.0
23/05:59pm 16.2 12.5 12.7 80 1.9 SW 24 33 13 18 1020.0 1019.9 0.0
23/05:30pm 16.3 12.3 13.0 81 1.8 SW 26 35 14 19 1019.6 1019.5 0.0
23/05:00pm 16.8 12.1 13.1 79 2.1 WSW 30 39 16 21 1019.2 1019.1 0.0
23/04:35pm 16.8 11.8 13.3 80 2.0 WSW 32 39 17 21 1018.8 1018.7 0.0
23/04:30pm 17.3 12.7 13.6 79 2.1 WSW 30 37 16 20 1018.7 1018.6 0.0
23/04:18pm 17.6 13.1 13.7 78 2.2 WSW 30 37 16 20 1018.7 1018.6 0.0
23/04:17pm 17.4 12.9 13.7 79 2.1 WSW 30 37 16 20 1018.7 1018.6 0.0
23/04:00pm 17.2 12.5 13.3 78 2.2 WSW 30 41 16 22 1018.4 1018.3 0.0
23/03:38pm 17.7 13.5 13.4 76 2.4 WSW 28 35 15 19 1018.1 1018.0 0.0
23/03:30pm 17.8 12.8 13.5 76 2.4 WSW 32 37 17 20 1018.1 1018.0 0.0
23/03:00pm 18.2 13.6 13.5 74 2.7 WSW 30 39 16 21 1017.8 1017.7 0.0
23/02:37pm 18.1 13.5 13.6 75 2.6 WSW 30 39 16 21 1017.6 1017.5 0.0
23/02:30pm 18.3 13.9 14.0 76 2.5 WSW 30 37 16 20 1017.7 1017.6 0.0
23/02:23pm 18.1 13.7 14.0 77 2.3 WSW 30 39 16 21 1017.7 1017.6 0.0
23/02:00pm 18.1 13.2 13.8 76 2.4 WSW 32 39 17 21 1017.5 1017.4 0.0
23/01:53pm 18.8 14.2 14.5 76 2.5 WSW 32 39 17 21 1017.4 1017.3 0.0
23/01:30pm 18.3 13.5 14.0 76 2.5 WSW 32 39 17 21 1017.4 1017.3 0.0
23/01:00pm 17.8 13.5 14.5 81 1.9 WSW 30 39 16 21 1017.4 1017.3 0.0
23/12:30pm 18.3 14.5 14.6 79 2.1 W 28 37 15 20 1017.2 1017.1 0.0
23/12:00pm 17.9 13.5 14.2 79 2.1 W 30 41 16 22 1017.0 1016.9 0.0
23/11:30am 19.2 14.6 14.5 74 2.7 W 32 41 17 22 1016.5 1016.4 0.0
23/11:21am 19.3 14.7 14.6 74 2.7 W 32 43 17 23 1016.5 1016.4 0.0
23/11:09am 18.8 14.0 14.1 74 2.7 WNW 32 43 17 23 1016.3 1016.2 0.0
23/11:00am 19.1 14.8 14.4 74 2.7 WNW 30 39 16 21 1016.2 1016.1 0.0
23/10:56am 18.8 14.0 14.1 74 2.7 W 32 39 17 21 1016.2 1016.1 0.0
23/10:30am 18.4 14.0 14.1 76 2.5 W 30 39 16 21 1015.6 1015.5 0.0
23/10:00am 18.2 14.1 13.9 76 2.5 WNW 28 37 15 20 1015.3 1015.2 0.0
23/09:30am 18.0 14.1 13.3 74 2.7 W 26 33 14 18 1015.0 1014.9 0.0
23/09:00am 17.3 13.2 13.8 80 2.0 W 28 39 15 21 1014.6 1014.5 0.0
23/08:30am 17.2 13.6 14.3 83 1.7 W 26 33 14 18 1013.9 1013.8 0.0
23/08:28am 17.2 13.6 14.3 83 1.7 W 26 33 14 18 1013.8 1013.7 0.0
23/08:12am 17.1 14.0 14.6 85 1.4 W 24 37 13 20 1013.6 1013.5 0.0
23/08:00am 17.1 13.8 14.9 87 1.3 WNW 26 35 14 19 1013.3 1013.2 0.0
23/07:30am 17.0 13.5 14.6 86 1.4 WNW 26 37 14 20 1012.8 1012.7 0.0
23/07:00am 16.6 12.7 14.4 87 1.3 WNW 28 35 15 19 1012.2 1012.1 0.0
23/06:30am 16.7 13.1 14.3 86 1.4 WNW 26 35 14 19 1011.7 1011.6 0.0
23/06:00am 16.7 12.0 14.2 85 1.4 WNW 32 39 17 21 1011.3 1011.2 0.0
23/05:30am 16.8 12.0 14.6 87 1.3 WNW 33 44 18 24 1011.0 1010.9 0.0
23/05:00am 16.8 12.3 14.8 88 1.2 WNW 32 39 17 21 1010.7 1010.6 0.0
23/04:30am 17.3 12.2 14.9 86 1.4 WNW 35 48 19 26 1010.2 1010.1 0.0
23/04:00am 17.2 11.7 14.7 85 1.4 NW 37 48 20 26 1009.9 1009.9 0.0
23/03:30am 17.4 12.3 14.7 84 1.6 NW 35 43 19 23 1009.9 1009.9 0.0
23/03:00am 17.4 11.9 14.7 84 1.6 WNW 37 48 20 26 1009.6 1009.6 0.0
23/02:30am 17.7 10.6 14.0 79 2.1 WNW 44 61 24 33 1009.6 1009.6 0.0
23/02:24am 17.8 10.9 13.9 78 2.2 WNW 43 61 23 33 1009.7 1009.7 0.0
23/02:00am 18.2 10.7 13.9 76 2.5 NW 46 61 25 33 1009.9 1009.9 0.0
23/01:36am 17.9 13.0 14.4 80 2.0 NW 33 52 18 28 1009.7 1009.7 0.0
23/01:30am 17.9 13.0 14.2 79 2.1 NW 33 41 18 22 1009.7 1009.7 0.0
23/01:00am 18.5 13.1 13.8 74 2.7 NW 35 48 19 26 1010.1 1010.0 0.0
23/12:30am 18.6 13.1 13.7 73 2.8 WNW 35 43 19 23 1009.9 1009.9 0.0
23/12:00am 18.4 14.7 12.8 70 3.1 WNW 24 35 13 19 1009.9 1009.9 0.0
 
Date/Time
EDT
Temp
°C
App
Temp
°C
Dew
Point
°C
Rel
Hum
%
Delta-T
°C
Wind Press
QNH
hPa
Press
MSL
hPa
Rain since
9am
mm
Dir  Spd
km/h
Gust
km/h
Spd
kts
Gust
kts
22/11:30pm 18.2 16.5 12.6 70 3.1 WNW 13 19 7 10 1010.1 1010.0 0.0
22/11:00pm 18.7 16.3 12.5 67 3.5 W 17 22 9 12 1010.1 1010.0 0.0
22/10:30pm 19.4 16.0 11.4 60 4.4 W 20 32 11 17 1010.2 1010.1 0.0
22/10:00pm 19.1 17.1 12.8 67 3.6 W 15 26 8 14 1009.4 1009.4 0.0
22/09:30pm 18.6 17.4 13.9 74 2.7 W 13 19 7 10 1008.8 1008.8 0.0
22/09:00pm 18.9 16.4 14.2 74 2.7 W 20 30 11 16 1008.6 1008.6 0.0
22/08:41pm 20.1 16.8 14.0 68 3.5 NW 24 46 13 25 1008.9 1008.9 0.0
22/08:30pm 20.7 17.6 14.4 67 3.7 NNW 24 33 13 18 1008.4 1008.4 0.0
22/08:00pm 21.0 16.3 14.2 65 4.0 N 32 50 17 27 1007.6 1007.6 0.0
22/07:58pm 21.2 17.1 13.9 63 4.2 NNE 28 50 15 27 1007.4 1007.4 0.0
22/07:57pm 21.4 17.6 13.6 61 4.5 NE 26 44 14 24 1007.4 1007.4 0.0
22/07:30pm 21.7 16.7 12.3 55 5.3 ENE 30 39 16 21 1005.3 1005.3 0.0
22/07:00pm 23.8 19.1 12.1 48 6.7 ENE 28 39 15 21 1005.6 1005.6 0.0
22/06:30pm 24.9 20.1 11.8 44 7.5 ENE 28 39 15 21 1006.2 1006.2 0.0
22/06:00pm 25.7 19.9 10.7 39 8.4 NE 32 46 17 25 1006.1 1006.1 0.0
22/05:34pm 26.4 19.9 10.5 37 8.9 NE 35 54 19 29 1007.0 1007.0 0.0
22/05:30pm 26.5 20.0 10.2 36 9.1 NE 35 46 19 25 1007.1 1007.1 0.0
22/05:00pm 26.6 20.2 10.7 37 9.0 NE 35 48 19 26 1007.6 1007.6 0.0
22/04:30pm 26.4 20.1 10.9 38 8.8 NE 35 52 19 28 1008.2 1008.2 0.0
22/04:00pm 26.1 20.4 11.8 41 8.2 NE 33 46 18 25 1008.9 1008.9 0.0
22/03:30pm 25.7 19.4 11.1 40 8.2 NE 35 46 19 25 1009.2 1009.2 0.0
22/03:00pm 25.7 19.1 11.5 41 8.1 NE 37 50 20 27 1009.9 1009.9 0.0
22/02:30pm 25.1 19.7 12.3 45 7.4 NE 32 44 17 24 1010.4 1010.3 0.0
22/02:00pm 24.8 19.6 12.7 47 7.0 NE 32 43 17 23 1010.4 1010.3 0.0
22/01:30pm 23.2 18.2 12.2 50 6.3 NE 30 39 16 21 1010.7 1010.6 0.0
22/01:00pm 23.3 17.5 11.4 47 6.7 NE 33 46 18 25 1011.5 1011.4 0.0
22/12:30pm 23.9 17.9 12.2 48 6.7 NE 35 43 19 23 1012.1 1012.0 0.0
22/12:00pm 23.0 18.1 12.6 52 5.9 NE 30 37 16 20 1012.6 1012.5 0.0
22/11:30am 22.9 17.9 12.2 51 6.1 NE 30 39 16 21 1013.1 1013.0 0.0
22/11:00am 22.4 18.0 12.9 55 5.4 NE 28 35 15 19 1013.3 1013.2 0.0

Other Formats:

Comma delimited format used in spreadsheet applications
http://www.bom.gov.au/fwo/IDT60801/IDT60801.94850.axf

JavaScript Object Notation format (JSON) in row-major order
http://www.bom.gov.au/fwo/IDT60801/IDT60801.94850.json